Olympia, Washington
Current Conditions -  °F | °C
As of 7:16 AM on Saturday 25 Oct 2014 (Local Time) from KOLM Reporting Station
Light Rain Light Rain  
Wind Chill: 45°   Ceiling: 7000
Heat Index: 48°   Visibility: 10mi
Dew Point: 48°   Wind: 6mph
Humidity: 100%   Direction: 250°WSW
Pressure: 29.55"   Gusts: NA
Location:  47.04°N, 122.89°W
Report Text: KOLM 251416Z AUTO 25005KT 10SM -RA SCT004 SCT060 OVC070 09/09 A2955 RMK AO2 P0000 T00890089
Loading
Personal Weather Stations






























Interactive Weather Map New forecast layout! Learn more

10-Day Weather Forecast

Advertisements
Track Severe Weather on mobile